E7BMS LQMO-LWOH
Flight info
| Callsign | E7BMS |
|---|---|
| Flight time | 0h 54m |
| Altitude | 21000 |
| Route | LQMO/15 GEBN1F GEBNI L187 MADOS DCT KONUV DCT PETAK DCT MAVAR MAVAR1 LWOH/01 |
| Aircraft | TBM9/L-V/N |
Departure
| Time | 2026-05-06 20:01 |
|---|---|
| Airport | Mostar International Airport (LQMO) |
Arrival
| Time | 2026-05-06 20:55 |
|---|---|
| Airport | Ohrid St. Paul the Apostle Airport (LWOH) |
| Time | Latitude | Longitude | Altitude | Speed | Heading |
|---|---|---|---|---|---|
| 2026-05-06 19:55 | 43.28471 | 17.84078 | 171 ft | 0 kts | 255° |
| 2026-05-06 19:58 | 43.28456 | 17.84077 | 171 ft | 8 kts | 88° |
| 2026-05-06 19:58 | 43.28521 | 17.84125 | 171 ft | 16 kts | 338° |
| 2026-05-06 19:58 | 43.28627 | 17.84066 | 172 ft | 17 kts | 338° |
| 2026-05-06 19:59 | 43.28738 | 17.84003 | 172 ft | 18 kts | 337° |
| 2026-05-06 19:59 | 43.28811 | 17.84028 | 173 ft | 12 kts | 69° |
| 2026-05-06 19:59 | 43.28841 | 17.84134 | 172 ft | 10 kts | 68° |
| 2026-05-06 19:59 | 43.28854 | 17.84181 | 171 ft | 5 kts | 68° |
| 2026-05-06 20:00 | 43.28874 | 17.84244 | 170 ft | 9 kts | 73° |
| 2026-05-06 20:00 | 43.28810 | 17.84297 | 170 ft | 28 kts | 157° |
| 2026-05-06 20:00 | 43.28435 | 17.84509 | 169 ft | 86 kts | 158° |
| 2026-05-06 20:00 | 43.27769 | 17.84907 | 363 ft | 110 kts | 152° |
| 2026-05-06 20:01 | 43.27072 | 17.85451 | 730 ft | 123 kts | 151° |
| 2026-05-06 20:01 | 43.26192 | 17.85669 | 1105 ft | 138 kts | 188° |
| 2026-05-06 20:01 | 43.25225 | 17.85315 | 1472 ft | 150 kts | 187° |
| 2026-05-06 20:01 | 43.24160 | 17.85309 | 1909 ft | 157 kts | 177° |
| 2026-05-06 20:02 | 43.23044 | 17.85370 | 2370 ft | 163 kts | 177° |
| 2026-05-06 20:02 | 43.21910 | 17.85424 | 2817 ft | 167 kts | 176° |
| 2026-05-06 20:02 | 43.20729 | 17.85480 | 3244 ft | 172 kts | 176° |
| 2026-05-06 20:02 | 43.19496 | 17.85538 | 3508 ft | 182 kts | 177° |
| 2026-05-06 20:03 | 43.18207 | 17.85600 | 3767 ft | 187 kts | 177° |
| 2026-05-06 20:03 | 43.16890 | 17.85662 | 4018 ft | 191 kts | 177° |
| 2026-05-06 20:03 | 43.15547 | 17.85724 | 4276 ft | 194 kts | 177° |
| 2026-05-06 20:03 | 43.14208 | 17.85786 | 4531 ft | 195 kts | 178° |
| 2026-05-06 20:04 | 43.12841 | 17.85851 | 4789 ft | 197 kts | 178° |
| 2026-05-06 20:04 | 43.11469 | 17.85965 | 5045 ft | 199 kts | 172° |
| 2026-05-06 20:04 | 43.10139 | 17.86506 | 5290 ft | 201 kts | 158° |
| 2026-05-06 20:04 | 43.08927 | 17.87480 | 5542 ft | 204 kts | 145° |
| 2026-05-06 20:05 | 43.07837 | 17.88729 | 5799 ft | 205 kts | 143° |
| 2026-05-06 20:05 | 43.06729 | 17.89964 | 6049 ft | 205 kts | 143° |
| 2026-05-06 20:05 | 43.05626 | 17.91207 | 6303 ft | 205 kts | 143° |
| 2026-05-06 20:05 | 43.04525 | 17.92452 | 6553 ft | 205 kts | 143° |
| 2026-05-06 20:06 | 43.03426 | 17.93699 | 6796 ft | 206 kts | 143° |
| 2026-05-06 20:06 | 43.02316 | 17.94953 | 7032 ft | 208 kts | 144° |
| 2026-05-06 20:06 | 43.01198 | 17.96208 | 7279 ft | 209 kts | 144° |
| 2026-05-06 20:06 | 43.00077 | 17.97475 | 7528 ft | 209 kts | 144° |
| 2026-05-06 20:07 | 42.98953 | 17.98743 | 7770 ft | 210 kts | 144° |
| 2026-05-06 20:07 | 42.97841 | 17.99997 | 8021 ft | 210 kts | 144° |
| 2026-05-06 20:07 | 42.96718 | 18.01260 | 8273 ft | 212 kts | 144° |
| 2026-05-06 20:07 | 42.95575 | 18.02545 | 8526 ft | 213 kts | 144° |
| 2026-05-06 20:08 | 42.94435 | 18.03828 | 8781 ft | 212 kts | 145° |
| 2026-05-06 20:08 | 42.93288 | 18.05097 | 9035 ft | 211 kts | 148° |
| 2026-05-06 20:08 | 42.92006 | 18.06041 | 9293 ft | 209 kts | 161° |
| 2026-05-06 20:08 | 42.90671 | 18.06822 | 9557 ft | 209 kts | 160° |
| 2026-05-06 20:09 | 42.89335 | 18.07627 | 9815 ft | 209 kts | 160° |
| 2026-05-06 20:09 | 42.88001 | 18.08427 | 10068 ft | 210 kts | 160° |
| 2026-05-06 20:09 | 42.86674 | 18.09219 | 10303 ft | 208 kts | 160° |
| 2026-05-06 20:09 | 42.85339 | 18.10010 | 10550 ft | 211 kts | 160° |
| 2026-05-06 20:10 | 42.83985 | 18.10814 | 10790 ft | 214 kts | 160° |
| 2026-05-06 20:10 | 42.82615 | 18.11629 | 11030 ft | 216 kts | 160° |
| 2026-05-06 20:10 | 42.81233 | 18.12455 | 11273 ft | 217 kts | 160° |
| 2026-05-06 20:10 | 42.79839 | 18.13281 | 11491 ft | 219 kts | 161° |
| 2026-05-06 20:11 | 42.78442 | 18.14114 | 11713 ft | 220 kts | 161° |
| 2026-05-06 20:11 | 42.77040 | 18.14950 | 11938 ft | 220 kts | 161° |
| 2026-05-06 20:11 | 42.75632 | 18.15788 | 12163 ft | 221 kts | 161° |
| 2026-05-06 20:11 | 42.74241 | 18.16616 | 12389 ft | 221 kts | 161° |
| 2026-05-06 20:12 | 42.72832 | 18.17452 | 12615 ft | 221 kts | 161° |
| 2026-05-06 20:12 | 42.71419 | 18.18292 | 12850 ft | 222 kts | 161° |
| 2026-05-06 20:12 | 42.70001 | 18.19135 | 13084 ft | 223 kts | 161° |
| 2026-05-06 20:12 | 42.68576 | 18.19981 | 13319 ft | 224 kts | 161° |
| 2026-05-06 20:13 | 42.67140 | 18.20831 | 13555 ft | 225 kts | 161° |
| 2026-05-06 20:13 | 42.65700 | 18.21688 | 13790 ft | 226 kts | 161° |
| 2026-05-06 20:13 | 42.64256 | 18.22544 | 14017 ft | 227 kts | 162° |
| 2026-05-06 20:13 | 42.62804 | 18.23403 | 14223 ft | 228 kts | 162° |
| 2026-05-06 20:14 | 42.61346 | 18.24265 | 14433 ft | 229 kts | 162° |
| 2026-05-06 20:14 | 42.59932 | 18.25309 | 14644 ft | 235 kts | 150° |
| 2026-05-06 20:14 | 42.58658 | 18.26721 | 14858 ft | 237 kts | 145° |
| 2026-05-06 20:14 | 42.57389 | 18.28154 | 15076 ft | 238 kts | 146° |
| 2026-05-06 20:15 | 42.56110 | 18.29584 | 15293 ft | 239 kts | 146° |
| 2026-05-06 20:15 | 42.54829 | 18.31026 | 15507 ft | 240 kts | 146° |
| 2026-05-06 20:15 | 42.53544 | 18.32476 | 15729 ft | 240 kts | 146° |
| 2026-05-06 20:15 | 42.52254 | 18.33928 | 15952 ft | 241 kts | 146° |
| 2026-05-06 20:16 | 42.50977 | 18.35364 | 16173 ft | 242 kts | 146° |
| 2026-05-06 20:16 | 42.49677 | 18.36825 | 16399 ft | 243 kts | 146° |
| 2026-05-06 20:16 | 42.48371 | 18.38291 | 16623 ft | 245 kts | 146° |
| 2026-05-06 20:16 | 42.47052 | 18.39771 | 16853 ft | 246 kts | 146° |
| 2026-05-06 20:17 | 42.45728 | 18.41261 | 17080 ft | 247 kts | 146° |
| 2026-05-06 20:17 | 42.44403 | 18.42747 | 17312 ft | 248 kts | 146° |
| 2026-05-06 20:17 | 42.43102 | 18.44294 | 17544 ft | 250 kts | 141° |
| 2026-05-06 20:17 | 42.41877 | 18.45976 | 17798 ft | 251 kts | 141° |
| 2026-05-06 20:18 | 42.40638 | 18.47641 | 18033 ft | 251 kts | 141° |
| 2026-05-06 20:18 | 42.39408 | 18.49289 | 18273 ft | 252 kts | 141° |
| 2026-05-06 20:18 | 42.38163 | 18.50965 | 18503 ft | 253 kts | 141° |
| 2026-05-06 20:18 | 42.36911 | 18.52649 | 18704 ft | 254 kts | 141° |
| 2026-05-06 20:19 | 42.35657 | 18.54336 | 18909 ft | 254 kts | 141° |
| 2026-05-06 20:19 | 42.34401 | 18.56022 | 19119 ft | 255 kts | 141° |
| 2026-05-06 20:19 | 42.33140 | 18.57716 | 19333 ft | 256 kts | 141° |
| 2026-05-06 20:19 | 42.31872 | 18.59417 | 19542 ft | 256 kts | 141° |
| 2026-05-06 20:20 | 42.30604 | 18.61117 | 19756 ft | 257 kts | 141° |
| 2026-05-06 20:20 | 42.29334 | 18.62818 | 19972 ft | 258 kts | 141° |
| 2026-05-06 20:20 | 42.28060 | 18.64525 | 20186 ft | 258 kts | 141° |
| 2026-05-06 20:20 | 42.26781 | 18.66236 | 20403 ft | 259 kts | 141° |
| 2026-05-06 20:21 | 42.25497 | 18.67955 | 20622 ft | 260 kts | 141° |
| 2026-05-06 20:21 | 42.24212 | 18.69673 | 20844 ft | 260 kts | 141° |
| 2026-05-06 20:21 | 42.22941 | 18.71370 | 21035 ft | 262 kts | 141° |
| 2026-05-06 20:21 | 42.21619 | 18.73130 | 21038 ft | 271 kts | 141° |
| 2026-05-06 20:22 | 42.20258 | 18.74946 | 21040 ft | 278 kts | 140° |
| 2026-05-06 20:22 | 42.18866 | 18.76804 | 21040 ft | 283 kts | 140° |
| 2026-05-06 20:22 | 42.17457 | 18.78684 | 21041 ft | 287 kts | 140° |
| 2026-05-06 20:22 | 42.16028 | 18.80588 | 21040 ft | 289 kts | 140° |
| 2026-05-06 20:23 | 42.14589 | 18.82503 | 21038 ft | 291 kts | 140° |
| 2026-05-06 20:23 | 42.13143 | 18.84427 | 21039 ft | 293 kts | 140° |
| 2026-05-06 20:23 | 42.11689 | 18.86358 | 21035 ft | 294 kts | 140° |
| 2026-05-06 20:23 | 42.10231 | 18.88295 | 21032 ft | 295 kts | 140° |
| 2026-05-06 20:24 | 42.08788 | 18.90211 | 21033 ft | 295 kts | 140° |
| 2026-05-06 20:24 | 42.07320 | 18.92158 | 21032 ft | 296 kts | 140° |
| 2026-05-06 20:24 | 42.05851 | 18.94106 | 21028 ft | 296 kts | 140° |
| 2026-05-06 20:24 | 42.04379 | 18.96054 | 21028 ft | 297 kts | 140° |
| 2026-05-06 20:25 | 42.02908 | 18.98003 | 21025 ft | 297 kts | 140° |
| 2026-05-06 20:25 | 42.01434 | 18.99951 | 21030 ft | 297 kts | 140° |
| 2026-05-06 20:25 | 41.99958 | 19.01902 | 21030 ft | 297 kts | 140° |
| 2026-05-06 20:25 | 41.98483 | 19.03851 | 21027 ft | 298 kts | 140° |
| 2026-05-06 20:26 | 41.97005 | 19.05803 | 21026 ft | 298 kts | 140° |
| 2026-05-06 20:26 | 41.95527 | 19.07752 | 21026 ft | 298 kts | 140° |
| 2026-05-06 20:26 | 41.94065 | 19.09680 | 21026 ft | 298 kts | 140° |
| 2026-05-06 20:26 | 41.92582 | 19.11632 | 21023 ft | 298 kts | 140° |
| 2026-05-06 20:27 | 41.91100 | 19.13583 | 21026 ft | 298 kts | 140° |
| 2026-05-06 20:27 | 41.89618 | 19.15532 | 21026 ft | 299 kts | 140° |
| 2026-05-06 20:27 | 41.88136 | 19.17482 | 21024 ft | 299 kts | 140° |
| 2026-05-06 20:27 | 41.86647 | 19.19436 | 21026 ft | 299 kts | 140° |
| 2026-05-06 20:28 | 41.85159 | 19.21390 | 21027 ft | 299 kts | 140° |
| 2026-05-06 20:28 | 41.83673 | 19.23340 | 21028 ft | 299 kts | 140° |
| 2026-05-06 20:28 | 41.82185 | 19.25291 | 21033 ft | 299 kts | 140° |
| 2026-05-06 20:28 | 41.80695 | 19.27242 | 21032 ft | 299 kts | 140° |
| 2026-05-06 20:29 | 41.79298 | 19.29274 | 21029 ft | 302 kts | 131° |
| 2026-05-06 20:29 | 41.78173 | 19.31712 | 21033 ft | 306 kts | 119° |
| 2026-05-06 20:29 | 41.77426 | 19.34347 | 21034 ft | 309 kts | 107° |
| 2026-05-06 20:29 | 41.77055 | 19.37185 | 21038 ft | 310 kts | 97° |
| 2026-05-06 20:30 | 41.76830 | 19.40057 | 21036 ft | 310 kts | 97° |
| 2026-05-06 20:30 | 41.76345 | 19.45818 | 21039 ft | 310 kts | 97° |
| 2026-05-06 20:30 | 41.76110 | 19.48690 | 21035 ft | 310 kts | 97° |
| 2026-05-06 20:31 | 41.75876 | 19.51528 | 21042 ft | 310 kts | 97° |
| 2026-05-06 20:31 | 41.75634 | 19.54435 | 21037 ft | 311 kts | 97° |
| 2026-05-06 20:31 | 41.75396 | 19.57283 | 21039 ft | 311 kts | 97° |
| 2026-05-06 20:31 | 41.75156 | 19.60162 | 21044 ft | 311 kts | 97° |
| 2026-05-06 20:32 | 41.74914 | 19.63038 | 21039 ft | 311 kts | 97° |
| 2026-05-06 20:32 | 41.74673 | 19.65918 | 21044 ft | 311 kts | 97° |
| 2026-05-06 20:32 | 41.74429 | 19.68797 | 21045 ft | 311 kts | 97° |
| 2026-05-06 20:32 | 41.74186 | 19.71670 | 21047 ft | 311 kts | 97° |
| 2026-05-06 20:33 | 41.73943 | 19.74550 | 21045 ft | 311 kts | 97° |
| 2026-05-06 20:33 | 41.73697 | 19.77430 | 21050 ft | 312 kts | 97° |
| 2026-05-06 20:33 | 41.73450 | 19.80311 | 21050 ft | 312 kts | 97° |
| 2026-05-06 20:33 | 41.73203 | 19.83202 | 21044 ft | 312 kts | 97° |
| 2026-05-06 20:34 | 41.72955 | 19.86081 | 21051 ft | 311 kts | 97° |
| 2026-05-06 20:34 | 41.72707 | 19.88959 | 21048 ft | 311 kts | 97° |
| 2026-05-06 20:34 | 41.72463 | 19.91802 | 21050 ft | 311 kts | 97° |
| 2026-05-06 20:34 | 41.72214 | 19.94672 | 21051 ft | 311 kts | 97° |
| 2026-05-06 20:35 | 41.71963 | 19.97550 | 21045 ft | 311 kts | 97° |
| 2026-05-06 20:35 | 41.71713 | 20.00426 | 21053 ft | 311 kts | 97° |
| 2026-05-06 20:35 | 41.71461 | 20.03299 | 21050 ft | 311 kts | 97° |
| 2026-05-06 20:35 | 41.71209 | 20.06174 | 21045 ft | 311 kts | 97° |
| 2026-05-06 20:36 | 41.70957 | 20.09042 | 21037 ft | 311 kts | 97° |
| 2026-05-06 20:36 | 41.70704 | 20.11922 | 21052 ft | 311 kts | 97° |
| 2026-05-06 20:36 | 41.70449 | 20.14807 | 21049 ft | 311 kts | 97° |
| 2026-05-06 20:36 | 41.70192 | 20.17694 | 21039 ft | 311 kts | 97° |
| 2026-05-06 20:37 | 41.69936 | 20.20568 | 21049 ft | 311 kts | 97° |
| 2026-05-06 20:37 | 41.69681 | 20.23439 | 21047 ft | 310 kts | 97° |
| 2026-05-06 20:37 | 41.69427 | 20.26274 | 21024 ft | 311 kts | 97° |
| 2026-05-06 20:37 | 41.69166 | 20.29170 | 20848 ft | 315 kts | 97° |
| 2026-05-06 20:38 | 41.68903 | 20.32098 | 20678 ft | 318 kts | 97° |
| 2026-05-06 20:38 | 41.68638 | 20.35046 | 20507 ft | 320 kts | 97° |
| 2026-05-06 20:38 | 41.68369 | 20.38013 | 20337 ft | 322 kts | 97° |
| 2026-05-06 20:38 | 41.68098 | 20.40992 | 20166 ft | 323 kts | 97° |
| 2026-05-06 20:39 | 41.67826 | 20.43977 | 19995 ft | 323 kts | 97° |
| 2026-05-06 20:39 | 41.67525 | 20.46960 | 19830 ft | 323 kts | 102° |
| 2026-05-06 20:39 | 41.66870 | 20.49827 | 19657 ft | 322 kts | 114° |
| 2026-05-06 20:39 | 41.65837 | 20.52468 | 19490 ft | 319 kts | 126° |
| 2026-05-06 20:40 | 41.64474 | 20.54783 | 19316 ft | 316 kts | 137° |
| 2026-05-06 20:40 | 41.62838 | 20.56704 | 19159 ft | 311 kts | 148° |
| 2026-05-06 20:40 | 41.61040 | 20.58306 | 18995 ft | 309 kts | 150° |
| 2026-05-06 20:40 | 41.59253 | 20.59908 | 18830 ft | 309 kts | 150° |
| 2026-05-06 20:41 | 41.57498 | 20.61485 | 18670 ft | 307 kts | 150° |
| 2026-05-06 20:41 | 41.55715 | 20.63066 | 18513 ft | 308 kts | 150° |
| 2026-05-06 20:41 | 41.53935 | 20.64648 | 18343 ft | 308 kts | 150° |
| 2026-05-06 20:41 | 41.52151 | 20.66234 | 18158 ft | 308 kts | 150° |
| 2026-05-06 20:42 | 41.50374 | 20.67815 | 17972 ft | 307 kts | 150° |
| 2026-05-06 20:42 | 41.48600 | 20.69391 | 17788 ft | 306 kts | 150° |
| 2026-05-06 20:42 | 41.47407 | 20.70452 | 17660 ft | 305 kts | 150° |
| 2026-05-06 20:42 | 41.45043 | 20.72543 | 17217 ft | 309 kts | 150° |
| 2026-05-06 20:43 | 41.43832 | 20.73617 | 16990 ft | 310 kts | 149° |
| 2026-05-06 20:43 | 41.42034 | 20.75212 | 16664 ft | 310 kts | 149° |
| 2026-05-06 20:43 | 41.40239 | 20.76802 | 16330 ft | 309 kts | 149° |
| 2026-05-06 20:43 | 41.38438 | 20.78363 | 16007 ft | 307 kts | 153° |
| 2026-05-06 20:44 | 41.36508 | 20.79513 | 15680 ft | 302 kts | 165° |
| 2026-05-06 20:44 | 41.34507 | 20.80171 | 15367 ft | 298 kts | 175° |
| 2026-05-06 20:44 | 41.32456 | 20.80348 | 15054 ft | 294 kts | 185° |
| 2026-05-06 20:44 | 41.30443 | 20.80047 | 14740 ft | 290 kts | 194° |
| 2026-05-06 20:45 | 41.28523 | 20.79301 | 14437 ft | 286 kts | 203° |
| 2026-05-06 20:45 | 41.26653 | 20.78395 | 14133 ft | 285 kts | 202° |
| 2026-05-06 20:45 | 41.24784 | 20.77523 | 13822 ft | 285 kts | 202° |
| 2026-05-06 20:45 | 41.22920 | 20.76639 | 13471 ft | 278 kts | 202° |
| 2026-05-06 20:46 | 41.21153 | 20.75796 | 12813 ft | 263 kts | 202° |
| 2026-05-06 20:46 | 41.19459 | 20.74988 | 12102 ft | 254 kts | 202° |
| 2026-05-06 20:46 | 41.17816 | 20.74209 | 11411 ft | 247 kts | 202° |
| 2026-05-06 20:46 | 41.16185 | 20.73557 | 10735 ft | 243 kts | 193° |
| 2026-05-06 20:47 | 41.14537 | 20.73267 | 10079 ft | 240 kts | 188° |
| 2026-05-06 20:47 | 41.12865 | 20.73047 | 9354 ft | 237 kts | 188° |
| 2026-05-06 20:47 | 41.11253 | 20.72934 | 8654 ft | 235 kts | 179° |
| 2026-05-06 20:47 | 41.09620 | 20.73250 | 7950 ft | 233 kts | 172° |
| 2026-05-06 20:48 | 41.08055 | 20.73648 | 7276 ft | 231 kts | 171° |
| 2026-05-06 20:48 | 41.06488 | 20.74049 | 6609 ft | 228 kts | 171° |
| 2026-05-06 20:48 | 41.04943 | 20.74437 | 5982 ft | 223 kts | 171° |
| 2026-05-06 20:48 | 41.03430 | 20.74790 | 5358 ft | 218 kts | 175° |
| 2026-05-06 20:49 | 41.01980 | 20.74426 | 4744 ft | 213 kts | 208° |
| 2026-05-06 20:49 | 41.00986 | 20.73044 | 4205 ft | 207 kts | 244° |
| 2026-05-06 20:49 | 41.00745 | 20.71273 | 4013 ft | 180 kts | 268° |
| 2026-05-06 20:49 | 41.00992 | 20.69836 | 4007 ft | 151 kts | 306° |
| 2026-05-06 20:50 | 41.01836 | 20.69091 | 4005 ft | 145 kts | 334° |
| 2026-05-06 20:50 | 41.02734 | 20.68531 | 4003 ft | 141 kts | 334° |
| 2026-05-06 20:50 | 41.03617 | 20.67996 | 3989 ft | 139 kts | 341° |
| 2026-05-06 20:50 | 41.04559 | 20.67935 | 4043 ft | 134 kts | 11° |
| 2026-05-06 20:51 | 41.05423 | 20.68344 | 4066 ft | 132 kts | 24° |
| 2026-05-06 20:51 | 41.06235 | 20.68868 | 4110 ft | 128 kts | 26° |
| 2026-05-06 20:51 | 41.07030 | 20.69376 | 4142 ft | 126 kts | 24° |
| 2026-05-06 20:51 | 41.07832 | 20.69830 | 4155 ft | 126 kts | 21° |
| 2026-05-06 20:52 | 41.08662 | 20.70211 | 4169 ft | 126 kts | 17° |
| 2026-05-06 20:52 | 41.09502 | 20.70613 | 4101 ft | 132 kts | 19° |
| 2026-05-06 20:52 | 41.10296 | 20.70924 | 4045 ft | 113 kts | 14° |
| 2026-05-06 20:52 | 41.11040 | 20.71213 | 3864 ft | 109 kts | 17° |
| 2026-05-06 20:53 | 41.11770 | 20.71490 | 3623 ft | 110 kts | 13° |
| 2026-05-06 20:53 | 41.12492 | 20.71801 | 3409 ft | 108 kts | 20° |
| 2026-05-06 20:53 | 41.13203 | 20.72119 | 3199 ft | 106 kts | 20° |
| 2026-05-06 20:53 | 41.13897 | 20.72427 | 3029 ft | 103 kts | 19° |
| 2026-05-06 20:54 | 41.14568 | 20.72722 | 2894 ft | 100 kts | 20° |
| 2026-05-06 20:54 | 41.15217 | 20.73010 | 2767 ft | 98 kts | 19° |
| 2026-05-06 20:54 | 41.15873 | 20.73305 | 2597 ft | 101 kts | 20° |
| 2026-05-06 20:54 | 41.16543 | 20.73615 | 2444 ft | 101 kts | 19° |
| 2026-05-06 20:55 | 41.17191 | 20.73888 | 2358 ft | 91 kts | 18° |
| 2026-05-06 20:55 | 41.17715 | 20.74114 | 2354 ft | 68 kts | 18° |
| 2026-05-06 20:55 | 41.18008 | 20.74265 | 2355 ft | 20 kts | 74° |
| 2026-05-06 20:55 | 41.17985 | 20.74396 | 2354 ft | 9 kts | 109° |
| 2026-05-06 20:56 | 41.17969 | 20.74456 | 2355 ft | 0 kts | 108° |